createdAt,value
2022-11-12T00:00:53.251Z,51.40
2022-11-12T00:01:47.245Z,51.13
2022-11-12T00:02:41.220Z,49.61
2022-11-12T00:03:36.241Z,50.54
2022-11-12T00:04:30.224Z,52.49
2022-11-12T00:05:24.226Z,49.01
2022-11-12T00:06:11.227Z,50.47
2022-11-12T00:06:45.297Z,48.94
2022-11-12T00:07:32.212Z,50.10
2022-11-12T00:08:06.263Z,51.63
2022-11-12T00:08:53.202Z,51.21
2022-11-12T00:09:27.233Z,49.75
2022-11-12T00:10:15.216Z,48.58
2022-11-12T00:10:49.260Z,49.67
2022-11-12T00:11:36.258Z,50.59
2022-11-12T00:12:10.263Z,49.86
2022-11-12T00:12:57.208Z,47.33
2022-11-12T00:13:31.308Z,48.38
2022-11-12T00:14:18.203Z,47.56
2022-11-12T00:14:52.299Z,46.06
2022-11-12T00:15:39.199Z,46.92
2022-11-12T00:16:13.236Z,45.58
2022-11-12T00:17:00.256Z,45.45
2022-11-12T00:17:34.254Z,45.79
2022-11-12T00:18:21.207Z,45.83
2022-11-12T00:18:55.234Z,44.90
2022-11-12T00:19:42.209Z,45.61
2022-11-12T00:20:16.233Z,45.53
2022-11-12T00:21:03.212Z,46.89
2022-11-12T00:21:37.234Z,45.55
2022-11-12T00:22:24.200Z,44.84
2022-11-12T00:22:58.239Z,42.85
2022-11-12T00:23:45.209Z,47.17
2022-11-12T00:24:19.243Z,50.05
2022-11-12T00:25:06.198Z,46.69
2022-11-12T00:25:40.287Z,43.83
2022-11-12T00:26:27.194Z,44.34
2022-11-12T00:27:02.281Z,44.54
2022-11-12T00:27:49.223Z,42.70
2022-11-12T00:28:23.434Z,43.97
2022-11-12T00:29:10.182Z,41.60
2022-11-12T00:29:44.231Z,40.54
2022-11-12T00:30:31.207Z,38.89
2022-11-12T00:31:05.233Z,40.39
2022-11-12T00:31:52.184Z,40.44
2022-11-12T00:32:26.339Z,39.13
2022-11-12T00:33:13.195Z,36.76
2022-11-12T00:33:49.323Z,34.94
2022-11-12T00:34:36.191Z,35.74
2022-11-12T00:35:13.863Z,36.05
2022-11-12T00:36:01.202Z,35.09
2022-11-12T00:36:35.220Z,37.25
2022-11-12T00:37:23.194Z,35.38
2022-11-12T00:38:03.304Z,34.28
2022-11-12T00:38:44.204Z,34.54
2022-11-12T00:39:24.256Z,34.78
2022-11-12T00:40:04.176Z,35.13
2022-11-12T00:40:44.245Z,33.63
2022-11-12T00:41:24.168Z,33.22
2022-11-12T00:42:04.241Z,34.06
2022-11-12T00:42:45.179Z,33.94
2022-11-12T00:43:25.266Z,33.20
2022-11-12T00:44:05.207Z,33.94
2022-11-12T00:44:45.300Z,34.79
2022-11-12T00:45:28.174Z,34.55
2022-11-12T00:46:08.228Z,33.90
2022-11-12T00:46:48.163Z,34.95
2022-11-12T00:47:28.209Z,34.95
2022-11-12T00:48:09.195Z,34.78
2022-11-12T00:48:49.220Z,34.42
2022-11-12T00:49:30.233Z,35.14
2022-11-12T00:50:10.216Z,33.97
2022-11-12T00:50:50.176Z,35.81
2022-11-12T00:51:30.206Z,36.81
2022-11-12T00:52:11.162Z,36.20
2022-11-12T00:52:51.268Z,35.54
2022-11-12T00:53:32.160Z,34.59
2022-11-12T00:54:13.206Z,35.16
2022-11-12T00:54:53.179Z,35.58
2022-11-12T00:55:33.310Z,35.91
2022-11-12T00:56:14.173Z,37.00
2022-11-12T00:56:55.235Z,35.83
2022-11-12T00:57:35.163Z,35.10
2022-11-12T00:58:29.169Z,34.63
2022-11-12T00:59:23.151Z,34.75
2022-11-12T01:00:13.165Z,32.47
2022-11-12T01:00:47.557Z,33.06
2022-11-12T01:01:34.161Z,33.34
2022-11-12T01:02:08.257Z,33.56
2022-11-12T01:02:55.163Z,33.91
2022-11-12T01:03:29.296Z,34.80
2022-11-12T01:04:17.171Z,33.45
2022-11-12T01:04:51.235Z,33.95
2022-11-12T01:05:40.186Z,33.65
2022-11-12T01:06:24.281Z,32.29
2022-11-12T01:07:11.208Z,33.47
2022-11-12T01:07:45.214Z,33.33
2022-11-12T01:08:32.178Z,35.22
2022-11-12T01:09:06.268Z,33.76
2022-11-12T01:09:53.154Z,33.94
2022-11-12T01:10:27.183Z,35.72
2022-11-12T01:11:20.188Z,33.30
2022-11-12T01:12:00.203Z,33.83
2022-11-12T01:12:40.158Z,33.39
2022-11-12T01:13:20.176Z,33.83
2022-11-12T01:14:08.162Z,33.49
2022-11-12T01:14:48.165Z,32.26
2022-11-12T01:15:29.155Z,32.80
2022-11-12T01:16:14.258Z,32.09
2022-11-12T01:16:54.181Z,32.42
2022-11-12T01:17:34.196Z,31.45
2022-11-12T01:18:14.139Z,32.03
2022-11-12T01:18:57.252Z,31.66
2022-11-12T01:19:37.126Z,32.55
2022-11-12T01:20:17.188Z,31.86
2022-11-12T01:20:58.123Z,31.71
2022-11-12T01:21:40.204Z,31.13
2022-11-12T01:22:20.174Z,30.88
2022-11-12T01:23:00.184Z,31.25
2022-11-12T01:23:43.145Z,29.45
2022-11-12T01:24:23.195Z,29.38
2022-11-12T01:25:03.152Z,30.33
2022-11-12T01:25:45.233Z,29.14
2022-11-12T01:26:28.172Z,29.33
2022-11-12T01:27:08.216Z,28.98
2022-11-12T01:27:48.161Z,29.48
2022-11-12T01:28:28.384Z,29.13
2022-11-12T01:29:10.141Z,29.56
2022-11-12T01:29:50.177Z,27.41
2022-11-12T01:30:30.129Z,28.70
2022-11-12T01:31:35.257Z,30.30
2022-11-12T01:32:16.139Z,29.13
2022-11-12T01:33:03.136Z,31.83
2022-11-12T01:33:59.132Z,30.08
2022-11-12T01:34:53.141Z,29.91
2022-11-12T01:35:47.135Z,30.19
2022-11-12T01:36:44.123Z,31.73
2022-11-12T01:37:38.130Z,31.58
2022-11-12T01:38:25.314Z,29.10
2022-11-12T01:39:00.296Z,29.73
2022-11-12T01:39:47.121Z,28.67
2022-11-12T01:40:21.209Z,28.33
2022-11-12T01:41:08.137Z,28.83
2022-11-12T01:41:45.224Z,26.67
2022-11-12T01:42:38.140Z,26.08
2022-11-12T01:43:20.192Z,25.00
2022-11-12T01:44:36.137Z,24.25
2022-11-12T01:45:26.196Z,23.76
2022-11-12T01:46:10.127Z,24.00
2022-11-12T01:47:05.244Z,25.00
2022-11-12T01:47:46.141Z,23.70
2022-11-12T01:49:13.266Z,25.98
2022-11-12T01:50:06.071Z,26.16
2022-11-12T01:50:50.209Z,22.48
2022-11-12T01:51:34.115Z,22.25
2022-11-12T01:52:48.172Z,22.19
2022-11-12T01:53:30.106Z,22.90
2022-11-12T01:54:14.184Z,22.40
2022-11-12T01:54:56.131Z,20.83
2022-11-12T01:55:41.152Z,21.54
2022-11-12T01:56:15.159Z,22.74
2022-11-12T01:56:50.316Z,22.77
2022-11-12T01:57:36.099Z,22.14
2022-11-12T01:58:18.155Z,19.56
2022-11-12T01:58:58.677Z,20.99
2022-11-12T01:59:47.095Z,20.80
2022-11-12T02:00:22.179Z,19.91
2022-11-12T02:01:03.175Z,19.73
2022-11-12T02:01:43.188Z,21.29
2022-11-12T02:02:23.110Z,21.89
2022-11-12T02:03:08.136Z,19.99
2022-11-12T02:03:48.088Z,18.23
2022-11-12T02:04:29.173Z,18.49
2022-11-12T02:05:12.100Z,19.59
2022-11-12T02:05:56.171Z,18.49
2022-11-12T02:06:36.153Z,18.95
2022-11-12T02:07:17.202Z,18.84
2022-11-12T02:07:58.099Z,17.33
2022-11-12T02:08:39.149Z,18.27
2022-11-12T02:09:20.099Z,18.80
2022-11-12T02:10:01.183Z,19.69
2022-11-12T02:10:42.112Z,16.85
2022-11-12T02:11:25.135Z,16.74
2022-11-12T02:12:06.103Z,16.74
2022-11-12T02:13:04.560Z,16.41
2022-11-12T02:14:04.117Z,17.38
2022-11-12T02:14:44.135Z,18.05
2022-11-12T02:15:24.094Z,18.05
2022-11-12T02:16:05.119Z,17.44
2022-11-12T02:16:48.091Z,16.51
2022-11-12T02:17:28.096Z,16.64
2022-11-12T02:18:02.212Z,15.61
2022-11-12T02:18:35.828Z,15.93
2022-11-12T02:19:22.067Z,16.81
2022-11-12T02:19:58.123Z,15.86
2022-11-12T02:20:37.343Z,17.21
2022-11-12T02:21:17.116Z,16.76
2022-11-12T02:21:51.115Z,17.39
2022-11-12T02:22:24.791Z,17.65
2022-11-12T02:23:05.086Z,18.10
2022-11-12T02:23:39.317Z,16.88
2022-11-12T02:24:12.633Z,16.19
2022-11-12T02:24:53.068Z,16.14
2022-11-12T02:25:30.150Z,15.30
2022-11-12T02:26:03.766Z,14.73
2022-11-12T02:26:50.104Z,16.39
2022-11-12T02:27:24.119Z,17.50
2022-11-12T02:27:59.214Z,17.36
2022-11-12T02:28:40.101Z,15.43
2022-11-12T02:29:14.106Z,14.44
2022-11-12T02:29:47.749Z,15.06
2022-11-12T02:30:51.082Z,15.46
2022-11-12T02:31:25.137Z,15.55
2022-11-12T02:31:58.752Z,14.93
2022-11-12T02:32:40.052Z,15.00
2022-11-12T02:33:14.156Z,15.30
2022-11-12T02:33:54.109Z,15.48
2022-11-12T02:34:34.115Z,14.27
2022-11-12T02:35:15.077Z,15.01
2022-11-12T02:35:55.112Z,15.49
2022-11-12T02:36:36.063Z,16.11
2022-11-12T02:37:16.322Z,15.50
2022-11-12T02:37:56.051Z,15.30
2022-11-12T02:38:36.100Z,16.14
2022-11-12T02:39:16.071Z,14.48
2022-11-12T02:39:56.129Z,15.54
2022-11-12T02:40:36.067Z,15.96
2022-11-12T02:41:16.158Z,16.35
2022-11-12T02:41:56.054Z,16.15
2022-11-12T02:42:36.113Z,16.58
2022-11-12T02:43:23.052Z,15.45
2022-11-12T02:43:57.334Z,14.81
2022-11-12T02:44:38.076Z,14.48
2022-11-12T02:45:18.101Z,14.50
2022-11-12T02:45:58.043Z,14.81
2022-11-12T02:46:38.162Z,16.91
2022-11-12T02:47:19.064Z,17.80
2022-11-12T02:47:59.127Z,15.20
2022-11-12T02:48:39.056Z,16.31
2022-11-12T02:49:19.093Z,16.74
2022-11-12T02:49:59.070Z,16.63
2022-11-12T02:50:39.080Z,15.74
2022-11-12T02:51:19.044Z,16.98
2022-11-12T02:51:59.084Z,16.74
2022-11-12T02:52:40.064Z,16.65
2022-11-12T02:53:20.156Z,16.42
2022-11-12T02:54:00.065Z,19.05
2022-11-12T02:54:40.131Z,17.96
2022-11-12T02:55:20.096Z,18.31
2022-11-12T02:56:00.116Z,19.84
2022-11-12T02:56:42.044Z,21.94
2022-11-12T02:57:22.099Z,22.83
2022-11-12T02:58:06.037Z,25.52
2022-11-12T02:58:46.073Z,28.26
2022-11-12T02:59:26.052Z,27.11
2022-11-12T03:00:06.100Z,27.61
2022-11-12T03:00:46.162Z,28.92
2022-11-12T03:01:26.183Z,29.15
2022-11-12T03:02:06.039Z,29.34
2022-11-12T03:02:58.926Z,34.69
2022-11-12T03:03:40.048Z,41.72
2022-11-12T03:04:20.085Z,44.72
2022-11-12T03:05:00.038Z,44.91
2022-11-12T03:05:41.086Z,45.50
2022-11-12T03:06:21.082Z,43.36
2022-11-12T03:07:01.144Z,41.92
2022-11-12T03:07:41.043Z,41.09
2022-11-12T03:08:21.071Z,39.35
2022-11-12T03:09:02.036Z,38.09
2022-11-12T03:09:42.088Z,38.81
2022-11-12T03:10:22.026Z,37.66
2022-11-12T03:11:02.064Z,33.50
2022-11-12T03:11:43.030Z,32.51
2022-11-12T03:12:23.082Z,31.83
2022-11-12T03:13:05.065Z,30.59
2022-11-12T03:13:46.180Z,29.00
2022-11-12T03:14:27.020Z,28.51
2022-11-12T03:15:07.067Z,26.56
2022-11-12T03:15:47.020Z,24.01
2022-11-12T03:16:27.075Z,21.17
2022-11-12T03:17:07.051Z,20.46
2022-11-12T03:17:47.107Z,20.70
2022-11-12T03:18:27.266Z,20.11
2022-11-12T03:19:08.097Z,19.77
2022-11-12T03:19:49.043Z,19.70
2022-11-12T03:20:30.016Z,19.98
2022-11-12T03:21:11.024Z,19.74
2022-11-12T03:21:51.069Z,22.26
2022-11-12T03:22:31.043Z,24.55
2022-11-12T03:23:15.126Z,22.16
2022-11-12T03:23:55.015Z,21.39
2022-11-12T03:24:35.064Z,21.33
2022-11-12T03:25:16.036Z,20.66
2022-11-12T03:25:56.073Z,21.02
2022-11-12T03:26:36.212Z,21.81
2022-11-12T03:27:16.065Z,22.59
2022-11-12T03:28:02.039Z,22.39
2022-11-12T03:28:42.091Z,22.98
2022-11-12T03:29:22.033Z,22.35
2022-11-12T03:30:02.049Z,23.95
2022-11-12T03:30:46.000Z,27.34
2022-11-12T03:31:27.045Z,28.31
2022-11-12T03:32:07.027Z,27.06
2022-11-12T03:32:47.169Z,25.59
2022-11-12T03:33:27.048Z,25.34
2022-11-12T03:34:07.039Z,24.75
2022-11-12T03:34:47.268Z,23.76
2022-11-12T03:35:28.034Z,23.94
2022-11-12T03:36:09.005Z,22.11
2022-11-12T03:36:49.052Z,22.99
2022-11-12T03:37:29.014Z,22.80
2022-11-12T03:38:10.079Z,22.54
2022-11-12T03:38:50.041Z,22.15
2022-11-12T03:39:30.048Z,21.77
2022-11-12T03:40:11.028Z,21.46
2022-11-12T03:40:51.101Z,21.38
2022-11-12T03:41:31.995Z,19.40
2022-11-12T03:42:13.252Z,19.10
2022-11-12T03:42:55.029Z,18.71
2022-11-12T03:43:35.052Z,19.27
2022-11-12T03:44:15.020Z,19.29
2022-11-12T03:44:55.051Z,18.36
2022-11-12T03:45:35.006Z,17.55
2022-11-12T03:46:15.067Z,15.65
2022-11-12T03:46:56.015Z,18.17
2022-11-12T03:47:36.062Z,18.69
2022-11-12T03:48:16.003Z,16.46
2022-11-12T03:48:56.136Z,15.75
2022-11-12T03:49:36.011Z,16.94
2022-11-12T03:50:17.047Z,16.79
2022-11-12T03:50:56.988Z,16.89
2022-11-12T03:51:37.049Z,16.66
2022-11-12T03:52:18.003Z,15.91
2022-11-12T03:53:00.041Z,15.14
2022-11-12T03:53:39.980Z,14.64
2022-11-12T03:54:20.128Z,17.41
2022-11-12T03:55:00.013Z,21.90
2022-11-12T03:55:40.033Z,20.16
2022-11-12T03:56:19.990Z,17.80
2022-11-12T03:57:00.045Z,17.91
2022-11-12T03:57:40.967Z,17.20
2022-11-12T03:58:21.076Z,15.65
2022-11-12T03:59:00.992Z,18.77
2022-11-12T03:59:41.048Z,21.86
2022-11-12T04:00:22.030Z,21.02
2022-11-12T04:01:02.076Z,18.92
2022-11-12T04:01:41.970Z,21.65
2022-11-12T04:02:22.007Z,20.98
2022-11-12T04:03:02.971Z,18.90
2022-11-12T04:03:43.025Z,21.31
2022-11-12T04:04:23.004Z,22.05
2022-11-12T04:05:21.629Z,22.19
2022-11-12T04:06:20.993Z,21.76
2022-11-12T04:07:19.644Z,20.85
2022-11-12T04:08:41.982Z,22.02
2022-11-12T04:09:22.029Z,20.80
2022-11-12T04:10:01.985Z,19.69
2022-11-12T04:10:43.248Z,22.67
2022-11-12T04:11:25.007Z,22.14
2022-11-12T04:12:25.011Z,25.71
2022-11-12T04:13:23.968Z,24.13
2022-11-12T04:14:04.013Z,21.24
2022-11-12T04:14:44.963Z,24.45
2022-11-12T04:15:25.004Z,20.21
2022-11-12T04:16:30.994Z,19.27
2022-11-12T04:17:29.761Z,20.50
2022-11-12T04:18:29.055Z,22.96
2022-11-12T04:19:29.448Z,24.13
2022-11-12T04:20:27.962Z,19.39
2022-11-12T04:21:26.732Z,21.02
2022-11-12T04:22:14.969Z,23.04
2022-11-12T04:22:54.994Z,20.06
2022-11-12T04:23:34.947Z,19.27
2022-11-12T04:24:35.007Z,20.51
2022-11-12T04:25:33.956Z,18.63
2022-11-12T04:26:25.855Z,19.00
2022-11-12T04:27:05.966Z,20.09
2022-11-12T04:27:45.966Z,21.39
2022-11-12T04:28:20.014Z,21.24
2022-11-12T04:29:25.959Z,18.50
2022-11-12T04:30:18.802Z,19.30
2022-11-12T04:31:05.958Z,19.79
2022-11-12T04:31:40.007Z,19.84
2022-11-12T04:32:27.959Z,20.79
2022-11-12T04:33:08.999Z,22.67
2022-11-12T04:34:23.007Z,22.04
2022-11-12T04:35:17.937Z,22.17
2022-11-12T04:36:11.947Z,23.54
2022-11-12T04:37:05.955Z,23.91
2022-11-12T04:38:00.968Z,22.91
2022-11-12T04:38:40.979Z,23.86
2022-11-12T04:39:20.968Z,23.85
2022-11-12T04:40:01.947Z,23.14
2022-11-12T04:41:00.871Z,24.30
2022-11-12T04:41:59.976Z,24.77
2022-11-12T04:42:58.635Z,24.19
2022-11-12T04:43:58.000Z,25.33
2022-11-12T04:44:56.920Z,26.21
2022-11-12T04:45:36.947Z,23.19
2022-11-12T04:46:17.018Z,25.55
2022-11-12T04:46:56.935Z,24.84
2022-11-12T04:47:46.506Z,25.64
2022-11-12T04:48:29.436Z,27.45
2022-11-12T04:49:16.953Z,27.75
2022-11-12T04:50:11.952Z,27.14
2022-11-12T04:51:36.947Z,25.27
2022-11-12T04:52:31.933Z,30.36
2022-11-12T04:53:26.944Z,34.09
2022-11-12T04:54:20.956Z,32.47
2022-11-12T04:55:14.919Z,30.38
2022-11-12T04:56:10.919Z,28.09
2022-11-12T04:57:04.951Z,25.00
2022-11-12T04:58:00.796Z,20.39
2022-11-12T04:58:54.932Z,19.73
2022-11-12T04:59:41.934Z,19.36
2022-11-12T05:00:19.949Z,18.63
2022-11-12T05:01:07.967Z,20.86
2022-11-12T05:01:42.018Z,25.21
2022-11-12T05:02:28.917Z,24.96
2022-11-12T05:03:02.971Z,21.75
2022-11-12T05:03:49.939Z,22.60
2022-11-12T05:04:27.532Z,25.91
2022-11-12T05:05:07.972Z,21.44
2022-11-12T05:05:47.993Z,22.06
2022-11-12T05:06:46.974Z,23.81
2022-11-12T05:07:26.972Z,21.74
2022-11-12T05:08:08.918Z,21.21
2022-11-12T05:08:48.971Z,24.66
2022-11-12T05:09:34.932Z,24.90
2022-11-12T05:10:22.961Z,24.45
2022-11-12T05:11:16.946Z,25.44
2022-11-12T05:12:10.910Z,32.65
2022-11-12T05:13:04.931Z,43.35
2022-11-12T05:13:58.913Z,42.75
2022-11-12T05:14:52.895Z,42.45
2022-11-12T05:15:39.916Z,41.16
2022-11-12T05:16:13.977Z,40.71
2022-11-12T05:17:00.921Z,42.90
2022-11-12T05:17:34.997Z,46.85
2022-11-12T05:18:21.936Z,48.51
2022-11-12T05:18:55.964Z,47.69
2022-11-12T05:19:42.919Z,49.72
2022-11-12T05:20:20.939Z,54.74
2022-11-12T05:21:00.915Z,56.96
2022-11-12T05:21:59.823Z,52.31
2022-11-12T05:22:47.707Z,54.88
2022-11-12T05:23:35.197Z,57.96
2022-11-12T05:24:33.987Z,56.63
2022-11-12T05:25:15.989Z,57.38
2022-11-12T05:25:56.890Z,55.85
2022-11-12T05:26:36.912Z,55.05
2022-11-12T05:27:14.000Z,53.35
2022-11-12T05:28:00.900Z,50.42
2022-11-12T05:28:34.929Z,51.01
2022-11-12T05:29:21.914Z,52.42
2022-11-12T05:29:55.935Z,47.31
2022-11-12T05:30:42.910Z,44.56
2022-11-12T05:31:16.951Z,43.69
2022-11-12T05:31:56.915Z,43.64
2022-11-12T05:32:37.454Z,42.20
2022-11-12T05:33:17.878Z,42.88
2022-11-12T05:33:57.929Z,43.09
2022-11-12T05:34:37.883Z,42.28
2022-11-12T05:35:17.924Z,41.03
2022-11-12T05:35:57.895Z,44.22
2022-11-12T05:36:37.927Z,46.21
2022-11-12T05:37:21.925Z,48.70
2022-11-12T05:38:01.981Z,50.29
2022-11-12T05:38:41.878Z,52.47
2022-11-12T05:39:21.957Z,49.60
2022-11-12T05:40:01.888Z,46.83
2022-11-12T05:40:41.952Z,46.76
2022-11-12T05:41:21.880Z,46.15
2022-11-12T05:42:16.851Z,45.38
2022-11-12T05:42:56.906Z,44.80
2022-11-12T05:43:37.023Z,48.92
2022-11-12T05:44:16.892Z,51.76
2022-11-12T05:44:57.007Z,49.28
2022-11-12T05:45:36.873Z,47.85
2022-11-12T05:46:16.927Z,45.22
2022-11-12T05:46:57.874Z,43.50
2022-11-12T05:47:37.925Z,39.31
2022-11-12T05:48:23.970Z,38.39
2022-11-12T05:49:04.941Z,40.64
2022-11-12T05:49:44.875Z,37.90
2022-11-12T05:50:26.253Z,38.99
2022-11-12T05:51:13.332Z,40.11
2022-11-12T05:51:53.907Z,41.24
2022-11-12T05:52:34.859Z,43.79
2022-11-12T05:53:14.962Z,47.55
2022-11-12T05:53:54.897Z,50.42
2022-11-12T05:54:34.932Z,52.36
2022-11-12T05:55:15.879Z,48.38
2022-11-12T05:55:55.991Z,44.40
2022-11-12T05:56:35.870Z,44.22
2022-11-12T05:57:15.916Z,41.30
2022-11-12T05:57:56.859Z,42.79
2022-11-12T05:58:36.903Z,43.17
2022-11-12T05:59:19.881Z,40.28
2022-11-12T05:59:59.945Z,42.60
2022-11-12T06:00:45.876Z,44.97
2022-11-12T06:01:25.948Z,49.49
2022-11-12T06:02:05.941Z,52.17
2022-11-12T06:02:45.990Z,52.34
2022-11-12T06:03:26.868Z,53.22
2022-11-12T06:04:06.921Z,53.71
2022-11-12T06:04:46.876Z,48.89
2022-11-12T06:05:27.209Z,44.06
2022-11-12T06:06:07.859Z,48.65
2022-11-12T06:07:01.921Z,49.28
2022-11-12T06:07:55.855Z,45.20
2022-11-12T06:08:49.861Z,38.75
2022-11-12T06:09:43.867Z,33.92
2022-11-12T06:10:23.908Z,30.05
2022-11-12T06:11:03.891Z,35.58
2022-11-12T06:11:44.874Z,37.08
2022-11-12T06:12:24.903Z,34.56
2022-11-12T06:13:05.843Z,41.44
2022-11-12T06:13:45.936Z,47.53
2022-11-12T06:14:25.863Z,47.03
2022-11-12T06:15:05.897Z,48.78
2022-11-12T06:15:45.877Z,47.10
2022-11-12T06:16:39.859Z,49.69
2022-11-12T06:17:33.850Z,47.34
2022-11-12T06:18:28.031Z,43.00
2022-11-12T06:19:21.840Z,42.08
2022-11-12T06:20:15.836Z,40.71
2022-11-12T06:21:26.871Z,40.76
2022-11-12T06:22:00.886Z,39.76
2022-11-12T06:22:47.845Z,36.78
2022-11-12T06:23:22.046Z,34.70
2022-11-12T06:24:08.852Z,34.08
2022-11-12T06:24:42.865Z,29.99
2022-11-12T06:25:29.829Z,26.00
2022-11-12T06:26:03.947Z,28.24
2022-11-12T06:26:50.851Z,27.11
2022-11-12T06:27:24.859Z,27.94
2022-11-12T06:28:11.892Z,28.81
2022-11-12T06:28:45.956Z,24.81
2022-11-12T06:29:32.841Z,27.44
2022-11-12T06:30:06.892Z,27.67
2022-11-12T06:30:53.829Z,27.17
2022-11-12T06:31:28.948Z,27.08
2022-11-12T06:32:15.834Z,26.95
2022-11-12T06:32:53.890Z,25.74
2022-11-12T06:33:40.810Z,27.94
2022-11-12T06:34:14.927Z,29.45
2022-11-12T06:35:01.840Z,27.76
2022-11-12T06:35:39.099Z,26.29
2022-11-12T06:36:30.875Z,29.06
2022-11-12T06:37:04.867Z,27.58
2022-11-12T06:37:44.844Z,24.65
2022-11-12T06:38:25.216Z,26.86
2022-11-12T06:39:05.814Z,25.52
2022-11-12T06:39:45.872Z,26.15
2022-11-12T06:40:26.803Z,30.11
2022-11-12T06:41:06.875Z,30.23
2022-11-12T06:41:46.837Z,33.86
2022-11-12T06:42:26.870Z,34.84
2022-11-12T06:43:06.844Z,31.73
2022-11-12T06:43:47.945Z,33.14
2022-11-12T06:44:27.825Z,34.45
2022-11-12T06:45:07.867Z,35.08
2022-11-12T06:45:48.807Z,36.75
2022-11-12T06:46:28.881Z,33.74
2022-11-12T06:47:09.841Z,35.66
2022-11-12T06:47:49.911Z,35.39
2022-11-12T06:48:29.842Z,33.33
2022-11-12T06:49:09.927Z,33.08
2022-11-12T06:49:49.828Z,34.76
2022-11-12T06:50:29.884Z,35.42
2022-11-12T06:51:17.832Z,33.69
2022-11-12T06:51:58.932Z,33.67
2022-11-12T06:52:39.805Z,31.95
2022-11-12T06:53:19.835Z,33.92
2022-11-12T06:54:02.876Z,33.26
2022-11-12T06:54:42.908Z,33.46
2022-11-12T06:55:22.807Z,33.84
2022-11-12T06:56:09.963Z,35.04
2022-11-12T06:56:51.813Z,34.04
2022-11-12T06:57:32.431Z,35.13
2022-11-12T06:58:12.790Z,36.30
2022-11-12T06:58:52.869Z,35.79
2022-11-12T06:59:32.800Z,36.65
2022-11-12T07:00:13.847Z,35.70
2022-11-12T07:00:54.817Z,36.53
2022-11-12T07:01:34.886Z,37.46
2022-11-12T07:03:20.848Z,41.16
2022-11-12T07:04:01.810Z,48.69
2022-11-12T07:04:48.837Z,49.16
2022-11-12T07:05:42.800Z,46.46
2022-11-12T07:06:36.936Z,48.10
2022-11-12T07:07:30.898Z,53.39
2022-11-12T07:08:25.017Z,55.88
2022-11-12T07:09:19.808Z,53.09
2022-11-12T07:10:06.816Z,51.80
2022-11-12T07:10:47.836Z,52.16
2022-11-12T07:11:27.785Z,53.55
2022-11-12T07:12:08.853Z,48.99
2022-11-12T07:12:53.562Z,46.03
2022-11-12T07:13:37.890Z,49.65
2022-11-12T07:14:17.821Z,54.20
2022-11-12T07:14:57.847Z,52.30
2022-11-12T07:15:38.848Z,45.20
2022-11-12T07:16:22.335Z,42.10
2022-11-12T07:17:02.778Z,40.90
2022-11-12T07:17:43.815Z,38.47
2022-11-12T07:18:24.011Z,41.67
2022-11-12T07:19:04.198Z,46.51
2022-11-12T07:19:44.817Z,49.15
2022-11-12T07:20:26.865Z,52.88
2022-11-12T07:21:14.800Z,56.67
2022-11-12T07:21:54.834Z,64.00
2022-11-12T07:22:34.801Z,71.20
2022-11-12T07:23:14.829Z,70.07
2022-11-12T07:23:54.786Z,74.78
2022-11-12T07:24:35.871Z,76.63
2022-11-12T07:25:16.781Z,77.19
2022-11-12T07:26:11.854Z,73.50
2022-11-12T07:26:52.799Z,72.25
2022-11-12T07:27:36.814Z,72.67
2022-11-12T07:28:17.787Z,70.30
2022-11-12T07:28:58.872Z,69.79
2022-11-12T07:29:47.992Z,71.01
2022-11-12T07:30:28.922Z,71.78
2022-11-12T07:31:13.785Z,69.35
2022-11-12T07:32:00.809Z,67.55
2022-11-12T07:32:38.527Z,66.63
2022-11-12T07:33:28.796Z,65.97
2022-11-12T07:34:03.190Z,66.24
2022-11-12T07:34:49.780Z,64.82
2022-11-12T07:35:23.451Z,62.97
2022-11-12T07:36:18.790Z,60.25
2022-11-12T07:36:53.487Z,63.24
2022-11-12T07:37:36.783Z,62.64
2022-11-12T07:38:11.847Z,61.50
2022-11-12T07:38:45.752Z,59.60
2022-11-12T07:39:25.785Z,58.19
2022-11-12T07:40:00.138Z,58.64
2022-11-12T07:40:35.602Z,60.15
2022-11-12T07:41:27.774Z,55.88
2022-11-12T07:42:01.835Z,54.44
2022-11-12T07:42:44.806Z,56.97
2022-11-12T07:43:26.823Z,53.35
2022-11-12T07:44:06.792Z,52.05
2022-11-12T07:44:47.784Z,55.31
2022-11-12T07:45:27.759Z,52.55
2022-11-12T07:46:15.931Z,47.97
2022-11-12T07:46:55.762Z,48.37
2022-11-12T07:47:36.808Z,46.66
2022-11-12T07:48:16.800Z,44.56
2022-11-12T07:48:57.895Z,43.06
2022-11-12T07:49:38.788Z,41.03
2022-11-12T07:50:20.803Z,42.36
2022-11-12T07:51:13.865Z,41.29
2022-11-12T07:51:47.792Z,41.01
2022-11-12T07:52:34.778Z,37.31
2022-11-12T07:53:08.826Z,36.55
2022-11-12T07:53:53.733Z,35.67
2022-11-12T07:54:39.806Z,34.69
2022-11-12T07:55:19.759Z,35.45
2022-11-12T07:56:05.799Z,33.72
2022-11-12T07:56:45.740Z,33.22
2022-11-12T07:57:25.884Z,33.09
2022-11-12T07:58:07.794Z,34.44
2022-11-12T07:58:48.183Z,37.15
2022-11-12T07:59:29.776Z,34.89
2022-11-12T08:00:12.178Z,33.61
2022-11-12T08:00:51.769Z,31.75
2022-11-12T08:01:45.855Z,30.65
2022-11-12T08:02:26.767Z,29.90
2022-11-12T08:03:06.831Z,30.77
2022-11-12T08:03:46.733Z,29.94
2022-11-12T08:04:26.784Z,28.81
2022-11-12T08:05:12.974Z,30.67
2022-11-12T08:05:56.076Z,31.54
2022-11-12T08:06:37.877Z,31.08
2022-11-12T08:07:17.990Z,30.60
2022-11-12T08:07:58.875Z,33.65
2022-11-12T08:08:39.795Z,32.89
2022-11-12T08:09:20.736Z,32.00
2022-11-12T08:10:00.786Z,31.24
2022-11-12T08:10:41.765Z,30.81
2022-11-12T08:11:21.788Z,30.13
2022-11-12T08:12:01.747Z,31.26
2022-11-12T08:12:42.800Z,31.00
2022-11-12T08:13:23.733Z,31.21
2022-11-12T08:14:03.790Z,30.85
2022-11-12T08:14:43.739Z,30.42
2022-11-12T08:15:23.858Z,29.31
2022-11-12T08:16:05.812Z,32.09
2022-11-12T08:16:47.010Z,32.67
2022-11-12T08:17:29.750Z,28.11
2022-11-12T08:18:09.905Z,27.19
2022-11-12T08:18:51.723Z,26.74
2022-11-12T08:19:31.773Z,27.09
2022-11-12T08:20:13.737Z,28.10
2022-11-12T08:20:53.796Z,29.94
2022-11-12T08:21:35.765Z,27.50
2022-11-12T08:22:15.771Z,28.94
2022-11-12T08:22:55.711Z,31.38
2022-11-12T08:23:36.771Z,33.81
2022-11-12T08:24:17.723Z,35.41
2022-11-12T08:24:57.777Z,38.20
2022-11-12T08:25:39.740Z,40.41
2022-11-12T08:26:23.216Z,40.65
2022-11-12T08:27:04.760Z,40.46
2022-11-12T08:27:45.773Z,39.16
2022-11-12T08:28:28.032Z,41.34
2022-11-12T08:29:10.774Z,37.81
2022-11-12T08:29:51.717Z,36.50
2022-11-12T08:30:33.806Z,37.90
2022-11-12T08:31:28.737Z,33.13
2022-11-12T08:32:15.755Z,28.04
2022-11-12T08:33:14.749Z,27.67
2022-11-12T08:34:22.695Z,27.35
2022-11-12T08:35:16.719Z,25.44
2022-11-12T08:36:11.721Z,23.70
2022-11-12T08:37:06.745Z,21.26
2022-11-12T08:37:49.067Z,21.17
2022-11-12T08:38:29.079Z,20.85
2022-11-12T08:39:10.720Z,22.48
2022-11-12T08:39:50.782Z,22.01
2022-11-12T08:40:34.725Z,21.23
2022-11-12T08:41:18.757Z,21.59
2022-11-12T08:41:58.711Z,21.39
2022-11-12T08:42:39.756Z,20.88
2022-11-12T08:43:19.712Z,22.67
2022-11-12T08:44:04.142Z,24.29
2022-11-12T08:44:47.751Z,22.92
2022-11-12T08:45:27.815Z,22.05
2022-11-12T08:46:08.720Z,21.15
2022-11-12T08:46:48.975Z,21.80
2022-11-12T08:47:28.684Z,22.94
2022-11-12T08:48:14.254Z,23.45
2022-11-12T08:48:54.701Z,24.26
2022-11-12T08:49:34.749Z,24.23
2022-11-12T08:50:15.683Z,23.99
2022-11-12T08:50:56.760Z,23.92
2022-11-12T08:51:36.717Z,26.10
2022-11-12T08:52:17.761Z,28.71
2022-11-12T08:52:57.695Z,29.85
2022-11-12T08:53:38.763Z,29.31
2022-11-12T08:54:19.707Z,26.31
2022-11-12T08:54:59.728Z,27.09
2022-11-12T08:55:41.707Z,28.46
2022-11-12T08:56:21.782Z,29.63
2022-11-12T08:57:01.685Z,28.67
2022-11-12T08:57:49.848Z,28.41
2022-11-12T08:58:31.708Z,27.48
2022-11-12T08:59:11.740Z,28.32
2022-11-12T08:59:51.712Z,27.52
2022-11-12T09:00:31.715Z,28.06
2022-11-12T09:01:13.717Z,27.41
2022-11-12T09:01:53.772Z,26.50
2022-11-12T09:02:33.683Z,28.23
2022-11-12T09:03:22.732Z,27.34
2022-11-12T09:04:02.723Z,26.85
2022-11-12T09:04:42.739Z,30.77
2022-11-12T09:05:23.737Z,30.35
2022-11-12T09:06:03.815Z,31.13
2022-11-12T09:06:43.702Z,32.31
2022-11-12T09:08:30.024Z,33.58
2022-11-12T09:09:10.800Z,31.35
2022-11-12T09:09:50.685Z,29.25
2022-11-12T09:10:38.735Z,27.45
2022-11-12T09:11:32.716Z,28.51
2022-11-12T09:12:26.820Z,27.05
2022-11-12T09:13:23.759Z,26.40
2022-11-12T09:14:17.832Z,23.38
2022-11-12T09:16:16.731Z,20.44
2022-11-12T09:16:58.766Z,20.24
2022-11-12T09:17:41.709Z,20.77